Time;durP1;ratioP1;P1;durP2;ratioP2;P2;SDS_P1;SDS_P2;PMS_P1;PMS_P2;Temp;Humidity;BMP_temperature;BMP_pressure;BME280_temperature;BME280_humidity;BME280_pressure;Samples;Min_cycle;Max_cycle;Signal;HPM_P1;HPM_P2
2021/01/06 00:01:33;;;;;;;7.30;3.37;;;;;;;;;;6209199;23;20159;-66
2021/01/06 00:03:59;;;;;;;7.03;3.03;;;;;;;;;;6185451;23;20171;-66
2021/01/06 00:06:29;;;;;;;3.83;1.50;;;2.80;83.50;;;;;;6210779;23;20182;-66
2021/01/06 00:08:56;;;;;;;5.50;2.50;;;2.80;83.90;;;;;;6184843;23;20225;-67
2021/01/06 00:11:33;;;;;;;7.00;2.73;;;1.70;82.90;;;;;;6183277;23;20206;-66
2021/01/06 00:13:59;;;;;;;5.73;3.17;;;;;;;;;;6213443;23;20618;-66
2021/01/06 00:16:25;;;;;;;5.47;2.90;;;;;;;;;;6214182;23;20613;-66
2021/01/06 00:18:51;;;;;;;7.13;3.37;;;;;;;;;;6183463;23;20182;-66
2021/01/06 00:21:17;;;;;;;5.60;2.37;;;;;;;;;;6213080;23;20150;-67
2021/01/06 00:23:43;;;;;;;5.27;2.80;;;;;;;;;;6210778;22;20256;-66
2021/01/06 00:26:09;;;;;;;3.80;1.80;;;;;;;;;;6211929;23;20159;-66
2021/01/06 00:28:35;;;;;;;4.63;2.53;;;;;;;;;;6185159;23;20165;-66
2021/01/06 00:31:01;;;;;;;6.93;2.47;;;;;;;;;;6209192;23;20143;-66
2021/01/06 00:33:30;;;;;;;7.73;2.43;;;2.90;82.80;;;;;;6212748;23;20678;-66
2021/01/06 00:36:20;;;;;;;6.03;2.60;;;2.90;83.60;;;;;;6213018;23;20147;-66
2021/01/06 00:38:46;;;;;;;5.73;3.50;;;;;;;;;;6192019;22;20569;-66
2021/01/06 00:41:12;;;;;;;5.47;2.70;;;;;;;;;;6212935;23;20147;-66
2021/01/06 00:43:38;;;;;;;6.80;3.47;;;;;;;;;;6186161;23;20158;-66
2021/01/06 00:46:04;;;;;;;6.20;2.73;;;2.80;86.10;;;;;;6214164;23;20147;-65
2021/01/06 00:48:30;;;;;;;7.63;3.60;;;2.70;86.60;;;;;;6210546;23;20159;-66
2021/01/06 00:50:56;;;;;;;6.27;2.73;;;;;;;;;;6213195;22;20669;-66
2021/01/06 00:53:24;;;;;;;4.17;1.97;;;2.80;87.00;;;;;;6186283;23;20159;-66
2021/01/06 00:55:51;;;;;;;7.10;2.63;;;2.80;87.40;;;;;;6183480;23;20163;-66
2021/01/06 00:58:17;;;;;;;4.77;2.63;;;2.80;87.70;;;;;;6212873;23;20199;-66
2021/01/06 01:00:43;;;;;;;8.07;3.47;;;2.70;88.10;;;;;;6186086;23;20582;-67
2021/01/06 01:03:09;;;;;;;8.27;4.23;;;;;;;;;;6184446;23;20657;-67
2021/01/06 01:05:36;;;;;;;3.60;1.53;;;2.70;87.50;;;;;;6210998;23;20167;-67
2021/01/06 01:08:04;;;;;;;6.30;3.13;;;2.60;88.40;;;;;;6213773;23;20203;-67
2021/01/06 01:10:30;;;;;;;5.50;3.13;;;;;;;;;;6212904;23;20513;-67
2021/01/06 01:12:56;;;;;;;3.80;2.40;;;2.70;88.90;;;;;;6184089;23;20178;-67
2021/01/06 01:15:25;;;;;;;6.47;3.10;;;2.60;88.70;;;;;;6212868;23;20169;-67
2021/01/06 01:17:51;;;;;;;5.63;2.80;;;;;;;;;;6210157;22;20517;-67
2021/01/06 01:20:18;;;;;;;6.73;3.53;;;2.70;89.00;;;;;;6183632;23;20159;-67
2021/01/06 01:22:45;;;;;;;3.30;1.73;;;2.70;89.50;;;;;;6213317;23;20150;-67
2021/01/06 01:25:16;;;;;;;5.13;2.67;;;2.70;89.00;;;;;;6211668;23;20151;-67
2021/01/06 01:27:42;;;;;;;8.23;3.80;;;2.70;89.20;;;;;;6212716;23;20170;-67
2021/01/06 01:30:20;;;;;;;4.53;3.43;;;2.70;88.90;;;;;;6212133;22;20202;-66
2021/01/06 01:32:47;;;;;;;6.10;3.70;;;2.70;88.80;;;;;;6184427;23;20226;-67
2021/01/06 01:35:15;;;;;;;7.03;3.47;;;2.70;88.70;;;;;;6185555;23;20234;-67
2021/01/06 01:37:43;;;;;;;5.93;3.03;;;2.70;88.60;;;;;;6185311;23;20522;-67
2021/01/06 01:40:10;;;;;;;5.00;2.63;;;;;;;;;;6212344;22;20203;-67
2021/01/06 01:42:36;;;;;;;4.13;2.47;;;;;;;;;;6211575;23;20158;-67
2021/01/06 01:45:05;;;;;;;10.97;4.53;;;2.60;89.90;;;;;;6184190;23;20158;-67
2021/01/06 01:47:47;;;;;;;4.97;2.37;;;2.60;89.60;;;;;;6184259;23;20167;-67
2021/01/06 01:50:13;;;;;;;6.60;3.07;;;;;;;;;;6211483;23;20614;-67
2021/01/06 01:52:44;;;;;;;8.53;2.97;;;2.70;90.00;;;;;;6211001;22;20202;-67
2021/01/06 01:55:13;;;;;;;5.37;3.00;;;2.70;90.00;;;;;;6211599;23;20544;-67
2021/01/06 01:58:02;;;;;;;7.33;4.00;;;2.70;89.60;;;;;;6210833;23;20184;-67
2021/01/06 02:00:32;;;;;;;6.83;4.47;;;2.80;89.80;;;;;;6212875;22;20302;-68
2021/01/06 02:03:16;;;;;;;7.87;3.43;;;2.80;88.80;;;;;;6184638;23;20238;-66
2021/01/06 02:06:11;;;;;;;6.93;2.80;;;2.80;89.10;;;;;;6182882;23;20274;-66
2021/01/06 02:09:05;;;;;;;6.57;3.27;;;2.80;88.50;;;;;;6183816;23;20518;-66
2021/01/06 02:11:38;;;;;;;7.50;2.17;;;2.80;88.00;;;;;;6182246;23;20289;-65
2021/01/06 02:14:13;;;;;;;7.47;3.40;;;2.80;88.60;;;;;;6211918;23;20218;-66
2021/01/06 02:16:47;;;;;;;4.10;1.57;;;2.70;88.00;;;;;;6213500;23;20249;-66
2021/01/06 02:19:15;;;;;;;9.23;3.77;;;2.70;88.30;;;;;;6211311;23;20268;-66
2021/01/06 02:21:41;;;;;;;4.37;2.30;;;;;;;;;;6208962;22;20264;-66
2021/01/06 02:24:08;;;;;;;6.60;3.13;;;;;;;;;;6185953;23;20163;-66
2021/01/06 02:26:34;;;;;;;8.03;2.90;;;2.70;89.00;;;;;;6210882;23;20147;-66
2021/01/06 02:29:00;;;;;;;5.57;2.10;;;2.80;89.10;;;;;;6211312;23;20182;-66
2021/01/06 02:31:26;;;;;;;6.20;3.07;;;;;;;;;;6210463;23;20494;-66
2021/01/06 02:33:53;;;;;;;4.70;1.90;;;;;;;;;;6213214;22;20205;-66
2021/01/06 02:36:20;;;;;;;4.47;1.87;;;2.60;89.70;;;;;;6211605;23;20151;-66
2021/01/06 02:38:46;;;;;;;7.57;3.23;;;;;;;;;;6210668;23;20637;-67
2021/01/06 02:41:12;;;;;;;3.77;1.50;;;2.60;90.20;;;;;;6211452;23;20250;-66
2021/01/06 02:43:39;;;;;;;6.00;3.27;;;2.60;90.20;;;;;;6210323;23;20174;-66
2021/01/06 02:46:05;;;;;;;4.90;3.10;;;;;;;;;;6210672;23;20230;-66
2021/01/06 02:48:31;;;;;;;4.73;2.60;;;;;;;;;;6212561;22;20213;-66
2021/01/06 02:51:02;;;;;;;3.90;2.47;;;2.60;90.00;;;;;;6212092;23;20147;-67
2021/01/06 02:53:41;;;;;;;4.63;1.83;;;2.70;89.80;;;;;;6184892;23;20142;-68
2021/01/06 02:56:07;;;;;;;4.10;2.60;;;2.60;90.20;;;;;;6184330;23;20201;-67
2021/01/06 02:58:34;;;;;;;4.93;2.43;;;;;;;;;;6209225;22;20237;-67
2021/01/06 03:01:00;;;;;;;4.80;2.43;;;;;;;;;;6212269;23;20518;-68
2021/01/06 03:03:34;;;;;;;5.87;2.57;;;2.60;90.00;;;;;;6184589;23;20201;-66
2021/01/06 03:06:47;;;;;;;6.87;3.30;;;2.60;90.20;;;;;;6182133;23;20144;-66
2021/01/06 03:09:38;;;;;;;6.63;3.30;;;2.60;90.20;;;;;;6191463;22;20213;-66
2021/01/06 03:12:36;;;;;;;3.60;1.23;;;2.60;89.90;;;;;;6211198;23;20218;-66
2021/01/06 03:15:04;;;;;;;5.70;2.40;;;;;;;;;;6179311;22;20202;-66
2021/01/06 03:17:31;;;;;;;4.90;2.83;;;2.70;89.60;;;;;;6210914;23;20174;-66
2021/01/06 03:20:01;;;;;;;4.57;2.10;;;2.70;89.60;;;;;;6185454;23;20162;-67
2021/01/06 03:22:29;;;;;;;5.87;3.77;;;2.70;89.60;;;;;;6184143;23;20158;-67
2021/01/06 03:25:05;;;;;;;6.27;2.77;;;2.70;89.80;;;;;;6183662;23;20471;-67
2021/01/06 03:27:34;;;;;;;5.33;1.90;;;2.80;88.80;;;;;;6185145;23;20160;-66
2021/01/06 03:30:00;;;;;;;5.30;2.40;;;2.80;89.00;;;;;;6208703;23;20190;-66
2021/01/06 03:32:43;;;;;;;4.93;2.50;;;2.80;89.20;;;;;;6211221;22;20486;-66
2021/01/06 03:35:30;;;;;;;5.10;2.57;;;2.80;88.80;;;;;;6210577;23;20150;-66
2021/01/06 03:38:08;;;;;;;6.33;3.73;;;2.80;88.00;;;;;;6210520;23;20185;-66
2021/01/06 03:40:37;;;;;;;4.63;2.17;;;2.80;87.90;;;;;;6183295;23;20285;-66
2021/01/06 03:43:04;;;;;;;3.40;1.60;;;;;;;;;;6211425;22;20198;-66
2021/01/06 03:45:32;;;;;;;4.60;2.00;;;2.50;89.40;;;;;;6210226;23;20151;-66
2021/01/06 03:48:10;;;;;;;6.03;2.13;;;2.30;90.00;;;;;;6212127;23;20151;-66
2021/01/06 03:50:40;;;;;;;5.37;3.10;;;2.30;90.60;;;;;;6186635;23;20555;-66
2021/01/06 03:53:06;;;;;;;6.07;3.00;;;;;;;;;;6183810;23;20213;-66
2021/01/06 03:55:56;;;;;;;9.70;3.63;;;2.40;91.00;;;;;;6213822;23;20201;-66
2021/01/06 03:58:59;;;;;;;5.57;2.53;;;2.40;90.90;;;;;;6188113;23;20679;-66
2021/01/06 04:01:40;;;;;;;4.90;2.27;;;;;;;;;;6213103;22;20561;-66
2021/01/06 04:04:16;;;;;;;5.20;2.80;;;2.50;91.00;;;;;;6210249;23;20489;-66
2021/01/06 04:06:45;;;;;;;5.83;3.53;;;2.60;90.40;;;;;;6185266;23;20158;-66
2021/01/06 04:09:27;;;;;;;4.93;2.43;;;2.60;90.20;;;;;;6185835;23;20559;-66
2021/01/06 04:12:16;;;;;;;6.70;3.50;;;2.60;90.20;;;;;;6211575;22;20506;-66
2021/01/06 04:14:43;;;;;;;9.53;3.10;;;;;;;;;;6213610;23;20143;-66
2021/01/06 04:17:24;;;;;;;6.23;2.17;;;2.70;89.80;;;;;;6213336;23;20150;-66
2021/01/06 04:20:08;;;;;;;5.13;2.27;;;2.70;88.10;;;;;;6210761;23;20217;-66
2021/01/06 04:22:40;;;;;;;6.07;2.63;;;;;;;;;;6212977;22;20252;-66
2021/01/06 04:25:23;;;;;;;5.80;2.63;;;2.90;88.40;;;;;;6213289;23;20147;-66
2021/01/06 04:27:53;;;;;;;6.30;3.43;;;2.90;87.80;;;;;;6212733;23;20193;-66
2021/01/06 04:30:31;;;;;;;5.20;2.27;;;2.90;87.00;;;;;;6213602;23;20498;-65
2021/01/06 04:32:57;;;;;;;6.40;3.27;;;2.90;87.30;;;;;;6212827;23;20146;-66
2021/01/06 04:35:24;;;;;;;4.27;2.47;;;2.90;87.00;;;;;;6210342;22;20218;-66
2021/01/06 04:37:50;;;;;;;4.37;2.57;;;;;;;;;;6212940;23;20182;-66
2021/01/06 04:40:21;;;;;;;4.37;2.13;;;2.90;87.70;;;;;;6213188;23;20230;-66
2021/01/06 04:42:47;;;;;;;7.47;3.17;;;;;;;;;;6212338;23;20454;-66
2021/01/06 04:45:29;;;;;;;5.47;2.53;;;3.00;87.30;;;;;;6209639;23;20149;-66
2021/01/06 04:48:19;;;;;;;9.03;3.17;;;3.00;86.80;;;;;;6213122;22;20252;-66
2021/01/06 04:51:18;;;;;;;4.47;2.40;;;3.00;87.60;;;;;;6210363;23;20150;-66
2021/01/06 04:54:09;;;;;;;4.90;3.33;;;3.00;87.60;;;;;;6212421;23;20150;-66
2021/01/06 04:57:05;;;;;;;6.27;2.60;;;3.00;87.70;;;;;;6184796;23;20202;-66
2021/01/06 04:59:33;;;;;;;5.30;2.37;;;3.10;86.80;;;;;;6213115;23;20147;-66
2021/01/06 05:02:35;;;;;;;5.53;2.53;;;3.00;86.80;;;;;;6208421;23;20217;-67
2021/01/06 05:05:27;;;;;;;4.53;2.17;;;3.10;86.90;;;;;;6186495;23;20224;-66
2021/01/06 05:07:55;;;;;;;7.73;3.60;;;3.00;86.80;;;;;;6212285;23;20142;-66
2021/01/06 05:10:37;;;;;;;5.80;2.80;;;3.10;87.90;;;;;;6184994;23;20177;-66
2021/01/06 05:13:32;;;;;;;6.90;3.27;;;3.10;86.90;;;;;;6211379;22;20205;-66
2021/01/06 05:16:06;;;;;;;5.13;2.50;;;3.20;87.00;;;;;;6212005;23;20150;-66
2021/01/06 05:18:33;;;;;;;4.53;2.30;;;3.20;86.40;;;;;;6211982;23;20502;-67
2021/01/06 05:21:00;;;;;;;5.70;3.10;;;;;;;;;;6182940;23;20527;-67
2021/01/06 05:23:29;;;;;;;3.90;2.60;;;3.20;87.00;;;;;;6186725;23;20158;-66
2021/01/06 05:25:59;;;;;;;5.47;3.00;;;3.20;86.80;;;;;;6210183;23;20677;-66
2021/01/06 05:28:25;;;;;;;5.43;3.37;;;3.10;86.90;;;;;;6212178;23;20233;-66
2021/01/06 05:30:53;;;;;;;6.87;2.40;;;;;;;;;;6211164;22;20214;-66
2021/01/06 05:33:39;;;;;;;4.80;2.10;;;3.20;84.90;;;;;;6185782;23;20155;-66
2021/01/06 05:36:05;;;;;;;5.43;2.60;;;3.20;85.50;;;;;;6210252;23;20224;-66
2021/01/06 05:38:32;;;;;;;5.30;2.60;;;;;;;;;;6185321;23;20608;-66
2021/01/06 05:40:58;;;;;;;3.67;2.37;;;;;;;;;;6184188;23;20475;-66
2021/01/06 05:43:29;;;;;;;3.30;1.77;;;3.20;86.20;;;;;;6212437;23;20146;-66
2021/01/06 05:46:04;;;;;;;5.10;2.73;;;3.10;86.30;;;;;;6210228;23;20629;-66
2021/01/06 05:48:30;;;;;;;4.70;2.90;;;;;;;;;;6211622;22;20208;-66
2021/01/06 05:51:10;;;;;;;4.37;3.07;;;3.20;85.10;;;;;;6211719;23;20627;-66
2021/01/06 05:53:58;;;;;;;5.43;3.43;;;3.20;85.90;;;;;;6213134;23;20157;-66
2021/01/06 05:56:30;;;;;;;3.90;2.27;;;;;;;;;;6210710;22;20206;-67
2021/01/06 05:59:05;;;;;;;2.90;1.50;;;3.20;85.30;;;;;;6210608;23;20193;-66
2021/01/06 06:01:45;;;;;;;5.13;2.70;;;3.10;85.60;;;;;;6185510;23;20172;-66
2021/01/06 06:04:16;;;;;;;5.80;2.73;;;3.20;85.50;;;;;;6185248;23;20179;-66
2021/01/06 06:07:00;;;;;;;4.03;1.80;;;;;;;;;;6184882;23;20260;-67
2021/01/06 06:09:51;;;;;;;4.17;1.60;;;3.20;84.50;;;;;;6185455;23;20167;-66
2021/01/06 06:12:46;;;;;;;6.20;3.37;;;3.10;84.50;;;;;;6211109;23;20165;-66
2021/01/06 06:15:36;;;;;;;6.73;3.10;;;3.10;85.10;;;;;;6212377;22;20234;-66
2021/01/06 06:18:18;;;;;;;7.10;4.10;;;3.20;84.30;;;;;;6212318;23;20178;-66
2021/01/06 06:21:07;;;;;;;7.63;2.77;;;3.20;85.00;;;;;;6210838;23;20138;-67
2021/01/06 06:23:59;;;;;;;5.93;2.97;;;3.20;84.60;;;;;;6212852;22;20515;-66
2021/01/06 06:26:35;;;;;;;5.20;2.33;;;3.20;84.30;;;;;;6186465;23;20147;-67
2021/01/06 06:29:31;;;;;;;3.97;2.53;;;3.20;84.20;;;;;;6212308;23;20134;-66
2021/01/06 06:31:59;;;;;;;3.63;2.33;;;3.20;84.40;;;;;;6210918;22;20520;-66
2021/01/06 06:34:31;;;;;;;6.27;3.07;;;3.20;83.80;;;;;;6184596;23;20155;-67
2021/01/06 06:37:07;;;;;;;9.03;3.67;;;3.20;83.80;;;;;;6186900;23;20281;-66
2021/01/06 06:39:41;;;;;;;5.50;2.87;;;3.20;83.60;;;;;;6212968;22;20256;-66
2021/01/06 06:42:47;;;;;;;6.37;2.67;;;3.20;83.70;;;;;;6213823;23;20437;-66
2021/01/06 06:45:38;;;;;;;6.97;3.50;;;3.20;84.00;;;;;;6123246;23;20626;-66
2021/01/06 06:48:22;;;;;;;6.33;2.87;;;3.20;84.40;;;;;;6178237;23;20686;-66
2021/01/06 06:51:24;;;;;;;7.87;3.67;;;3.20;83.80;;;;;;6181618;23;20203;-67
2021/01/06 06:53:59;;;;;;;6.20;2.90;;;3.20;83.50;;;;;;6212293;23;20678;-66
2021/01/06 06:56:40;;;;;;;3.97;2.00;;;;;;;;;;6204309;23;20206;-67
2021/01/06 06:59:17;;;;;;;6.73;3.23;;;3.20;83.50;;;;;;6210678;23;20655;-66
2021/01/06 07:01:45;;;;;;;8.00;3.50;;;3.10;84.50;;;;;;6207103;23;20510;-69
2021/01/06 07:04:21;;;;;;;7.77;3.73;;;3.20;84.30;;;;;;6169396;23;20325;-67
2021/01/06 07:06:59;;;;;;;6.27;2.53;;;3.30;83.10;;;;;;6180807;23;20150;-66
2021/01/06 07:09:30;;;;;;;3.83;2.30;;;3.30;83.10;;;;;;6179709;23;20150;-66
2021/01/06 07:12:08;;;;;;;4.47;2.10;;;3.30;83.10;;;;;;6173786;23;20861;-66
2021/01/06 07:14:57;;;;;;;6.33;2.70;;;3.20;83.10;;;;;;6177262;23;20155;-67
2021/01/06 07:17:29;;;;;;;7.13;2.83;;;;;;;;;;6203795;22;20202;-66
2021/01/06 07:20:02;;;;;;;5.50;3.07;;;3.20;83.10;;;;;;6210275;23;20285;-66
2021/01/06 07:22:42;;;;;;;4.80;2.27;;;3.30;83.10;;;;;;6211750;23;20289;-67
2021/01/06 07:25:18;;;;;;;4.20;2.73;;;;;;;;;;6209973;22;20210;-66
2021/01/06 07:27:53;;;;;;;7.17;3.37;;;3.30;83.10;;;;;;6208185;23;20200;-66
2021/01/06 07:30:37;;;;;;;7.03;3.13;;;3.40;83.20;;;;;;6207519;23;20158;-66
2021/01/06 07:33:21;;;;;;;4.27;2.33;;;3.30;83.10;;;;;;6209681;22;20562;-66
2021/01/06 07:35:47;;;;;;;6.73;3.43;;;3.30;83.10;;;;;;6209954;23;20142;-66
2021/01/06 07:38:15;;;;;;;5.37;2.93;;;3.30;83.10;;;;;;6182460;23;20501;-66
2021/01/06 07:40:43;;;;;;;6.20;3.50;;;3.30;83.10;;;;;;6210909;23;20235;-66
2021/01/06 07:43:20;;;;;;;7.70;2.80;;;3.30;83.10;;;;;;6210274;22;20244;-66
2021/01/06 07:45:59;;;;;;;7.30;3.47;;;3.40;83.20;;;;;;6208683;23;20204;-66
2021/01/06 07:48:50;;;;;;;7.47;3.23;;;3.40;83.20;;;;;;6209135;23;20237;-66
2021/01/06 07:51:22;;;;;;;5.57;2.63;;;3.40;83.20;;;;;;6209916;23;20143;-66
2021/01/06 07:54:08;;;;;;;6.47;2.97;;;3.40;83.20;;;;;;6184408;23;20249;-66
2021/01/06 07:57:02;;;;;;;5.33;3.67;;;3.40;83.20;;;;;;6183639;23;20154;-66
2021/01/06 07:59:36;;;;;;;5.43;2.93;;;3.40;83.20;;;;;;6196032;23;20333;-66
2021/01/06 08:02:12;;;;;;;5.43;3.53;;;3.30;83.10;;;;;;6206690;23;20167;-66
2021/01/06 08:04:40;;;;;;;5.87;3.47;;;;;;;;;;6209387;22;20642;-66
2021/01/06 08:07:07;;;;;;;7.53;3.33;;;;;;;;;;6212555;23;20151;-66
2021/01/06 08:09:36;;;;;;;5.87;2.97;;;3.40;83.20;;;;;;6212196;23;20151;-66
2021/01/06 08:12:26;;;;;;;6.13;3.23;;;3.40;83.20;;;;;;6209361;23;20587;-67
2021/01/06 08:15:18;;;;;;;6.20;3.17;;;3.40;83.20;;;;;;6211058;23;20171;-66
2021/01/06 08:18:13;;;;;;;5.03;2.77;;;3.50;82.60;;;;;;6183021;23;20233;-66
2021/01/06 08:20:50;;;;;;;5.03;2.67;;;3.30;83.10;;;;;;6120649;23;20245;-66
2021/01/06 08:23:26;;;;;;;5.40;2.90;;;;;;;;;;6209318;22;20283;-66
2021/01/06 08:26:15;;;;;;;6.10;3.33;;;3.40;82.80;;;;;;6180928;23;20234;-66
2021/01/06 08:28:40;;;;;;;5.53;2.83;;;3.50;83.30;;;;;;6209181;23;20146;-66
2021/01/06 08:31:27;;;;;;;4.43;2.63;;;3.50;83.20;;;;;;6209305;23;20409;-65
2021/01/06 08:33:58;;;;;;;4.07;2.27;;;3.50;82.70;;;;;;6184060;23;20269;-66
2021/01/06 08:36:36;;;;;;;4.47;1.47;;;3.50;82.20;;;;;;6209893;23;20674;-66
2021/01/06 08:39:19;;;;;;;5.67;2.53;;;3.50;82.80;;;;;;6208763;23;20174;-66
2021/01/06 08:41:47;;;;;;;2.73;1.00;;;3.40;82.40;;;;;;6186164;23;20155;-66
2021/01/06 08:44:33;;;;;;;4.10;1.77;;;3.40;83.20;;;;;;6211633;23;20147;-66
2021/01/06 08:47:05;;;;;;;6.57;3.23;;;3.50;82.80;;;;;;6211593;23;20556;-66
2021/01/06 08:49:42;;;;;;;5.87;3.23;;;3.50;81.60;;;;;;6184263;23;20233;-65
2021/01/06 08:52:16;;;;;;;5.83;2.97;;;3.50;82.20;;;;;;6212959;23;20162;-66
2021/01/06 08:55:18;;;;;;;6.03;3.40;;;3.60;82.10;;;;;;6212224;23;20381;-66
2021/01/06 08:57:44;;;;;;;4.93;2.67;;;;;;;;;;6212546;22;20202;-66
2021/01/06 09:00:13;;;;;;;5.57;3.20;;;;;;;;;;6186033;23;20159;-66
2021/01/06 09:02:49;;;;;;;6.47;3.17;;;3.60;80.90;;;;;;6210358;23;20440;-66
2021/01/06 09:05:44;;;;;;;4.47;2.80;;;3.60;81.70;;;;;;6211133;23;20184;-66
2021/01/06 09:08:36;;;;;;;3.83;1.63;;;3.60;81.80;;;;;;6185852;23;20268;-66
2021/01/06 09:11:17;;;;;;;4.17;2.07;;;3.60;81.90;;;;;;6183016;23;20155;-66
2021/01/06 09:14:04;;;;;;;5.20;1.80;;;3.60;81.90;;;;;;6183781;23;20147;-67
2021/01/06 09:16:50;;;;;;;3.97;1.73;;;3.60;82.90;;;;;;6211366;23;20153;-66
2021/01/06 09:19:24;;;;;;;5.10;2.57;;;3.60;83.40;;;;;;6183370;23;20182;-66
2021/01/06 09:21:51;;;;;;;3.83;1.80;;;;;;;;;;6183916;23;20213;-66
2021/01/06 09:24:32;;;;;;;4.63;2.33;;;3.60;83.40;;;;;;6211463;23;20157;-66
2021/01/06 09:27:04;;;;;;;5.13;2.50;;;3.60;83.40;;;;;;6185181;23;20636;-66
2021/01/06 09:29:35;;;;;;;4.27;2.73;;;3.70;83.40;;;;;;6211976;23;20143;-66
2021/01/06 09:32:06;;;;;;;3.17;1.77;;;3.50;83.30;;;;;;6186627;23;20206;-66
2021/01/06 09:34:40;;;;;;;4.77;2.60;;;3.60;83.80;;;;;;6183571;23;20162;-66
2021/01/06 09:37:07;;;;;;;5.47;2.53;;;3.70;83.50;;;;;;6215478;23;20154;-66
2021/01/06 09:39:35;;;;;;;3.30;2.20;;;3.70;83.50;;;;;;6185875;23;20372;-66
2021/01/06 09:42:06;;;;;;;3.63;1.90;;;3.80;81.90;;;;;;6184666;23;20521;-66
2021/01/06 09:44:33;;;;;;;5.77;2.57;;;3.80;82.00;;;;;;6210730;22;20206;-66
2021/01/06 09:47:25;;;;;;;5.40;2.63;;;4.00;81.50;;;;;;6203884;23;20244;-66
2021/01/06 09:49:57;;;;;;;5.30;2.53;;;3.80;81.90;;;;;;6183950;23;20157;-66
2021/01/06 09:52:30;;;;;;;5.70;2.07;;;3.90;81.60;;;;;;6210362;22;20221;-66
2021/01/06 09:54:58;;;;;;;4.03;2.27;;;3.80;81.40;;;;;;6184305;23;20154;-66
2021/01/06 09:57:26;;;;;;;5.60;2.67;;;3.80;81.80;;;;;;6183257;23;20547;-66
2021/01/06 10:00:08;;;;;;;5.27;2.33;;;4.00;80.80;;;;;;6206187;23;20187;-66
2021/01/06 10:02:36;;;;;;;2.47;1.13;;;;;;;;;;6182930;23;20498;-68
2021/01/06 10:05:20;;;;;;;5.73;2.37;;;4.00;80.00;;;;;;6163644;23;20191;-68
2021/01/06 10:08:04;;;;;;;2.87;1.37;;;3.90;80.30;;;;;;6178837;23;20246;-67
2021/01/06 10:10:35;;;;;;;3.50;2.10;;;4.00;80.90;;;;;;6177192;23;20732;-64
2021/01/06 10:13:12;;;;;;;4.40;2.43;;;4.00;80.30;;;;;;6212385;23;20593;-70
2021/01/06 10:16:13;;;;;;;5.10;2.43;;;4.10;81.20;;;;;;6210683;23;20653;-63
2021/01/06 10:18:52;;;;;;;2.93;2.00;;;4.10;79.90;;;;;;6184069;23;20250;-64
2021/01/06 10:21:18;;;;;;;6.57;2.83;;;;;;;;;;6184747;23;20404;-64
2021/01/06 10:24:00;;;;;;;5.20;2.43;;;4.20;79.90;;;;;;6210598;23;20192;-64
2021/01/06 10:26:38;;;;;;;5.57;2.90;;;4.20;79.20;;;;;;6212345;23;20147;-62
2021/01/06 10:29:15;;;;;;;5.97;3.03;;;4.10;79.50;;;;;;6185588;23;20150;-64
2021/01/06 10:32:02;;;;;;;5.37;2.13;;;4.20;78.50;;;;;;6210906;23;20146;-64
2021/01/06 10:34:37;;;;;;;5.33;2.53;;;4.30;78.30;;;;;;6181788;23;20165;-68
2021/01/06 10:37:03;;;;;;;3.60;1.67;;;;;;;;;;6184224;23;20232;-68
2021/01/06 10:39:40;;;;;;;3.63;2.20;;;4.30;78.00;;;;;;6183132;23;20270;-67
2021/01/06 10:42:21;;;;;;;4.07;1.80;;;4.30;78.30;;;;;;6184495;23;20167;-67
2021/01/06 10:44:50;;;;;;;3.23;1.83;;;;;;;;;;6210214;22;20632;-67
2021/01/06 10:47:31;;;;;;;5.37;2.73;;;4.40;77.90;;;;;;6209771;23;20155;-67
2021/01/06 10:49:59;;;;;;;3.93;2.07;;;4.40;77.90;;;;;;6182204;23;20212;-67
2021/01/06 10:52:27;;;;;;;3.07;1.47;;;4.40;76.40;;;;;;6186012;23;20241;-67
2021/01/06 10:55:01;;;;;;;4.67;2.20;;;4.30;77.40;;;;;;6182264;23;20161;-68
2021/01/06 10:57:46;;;;;;;5.00;1.93;;;4.40;76.30;;;;;;6185082;23;20700;-67
2021/01/06 11:00:12;;;;;;;5.30;1.90;;;;;;;;;;6206826;23;20417;-67
2021/01/06 11:02:38;;;;;;;5.60;2.87;;;;;;;;;;6210175;23;20162;-67
2021/01/06 11:05:04;;;;;;;6.37;2.17;;;;;;;;;;6163851;23;20554;-67
2021/01/06 11:10:53;;;;;;;5.13;1.93;;;4.30;75.90;;;;;;6209147;22;20222;-68
2021/01/06 11:13:48;;;;;;;5.67;3.03;;;4.30;76.40;;;;;;6214871;23;20143;-66
2021/01/06 11:16:21;;;;;;;7.10;3.20;;;4.40;76.20;;;;;;6184670;23;20292;-67
2021/01/06 11:18:48;;;;;;;4.23;1.20;;;4.40;75.10;;;;;;6210832;23;20266;-66
2021/01/06 11:21:20;;;;;;;6.60;2.43;;;4.30;75.90;;;;;;6183953;23;20213;-66
2021/01/06 11:24:00;;;;;;;3.80;2.10;;;4.40;76.00;;;;;;6206921;22;20197;-67
2021/01/06 11:26:32;;;;;;;2.87;2.07;;;;;;;;;;6207349;23;20555;-66
2021/01/06 11:29:17;;;;;;;4.43;2.00;;;4.50;75.30;;;;;;6184721;23;20493;-66
2021/01/06 11:32:20;;;;;;;5.23;2.63;;;4.50;76.10;;;;;;6180336;23;20602;-66
2021/01/06 11:34:55;;;;;;;2.23;0.83;;;4.50;75.30;;;;;;6208438;23;20154;-66
2021/01/06 11:37:34;;;;;;;5.20;2.20;;;4.40;75.10;;;;;;6211190;23;20510;-62
2021/01/06 11:40:00;;;;;;;3.87;1.87;;;4.40;76.00;;;;;;6182556;23;20237;-66
2021/01/06 11:42:44;;;;;;;3.17;1.67;;;4.50;76.10;;;;;;6206442;22;20202;-65
2021/01/06 11:45:15;;;;;;;3.83;2.23;;;4.60;76.20;;;;;;6180712;23;20162;-65
2021/01/06 11:47:51;;;;;;;3.93;2.13;;;4.70;75.50;;;;;;6207505;23;20277;-64
2021/01/06 11:50:39;;;;;;;3.67;1.93;;;4.80;75.40;;;;;;6208844;23;20574;-65
2021/01/06 11:53:29;;;;;;;3.97;2.20;;;5.00;73.90;;;;;;6179349;23;20461;-65
2021/01/06 11:56:19;;;;;;;4.50;1.93;;;4.90;73.20;;;;;;6206468;23;20597;-65
2021/01/06 11:59:16;;;;;;;2.17;1.17;;;5.00;72.40;;;;;;6181957;23;20186;-65
2021/01/06 12:02:01;;;;;;;2.63;1.93;;;5.40;74.00;;;;;;6208536;23;20132;-66
2021/01/06 12:04:45;;;;;;;4.97;2.47;;;4.90;72.30;;;;;;6182655;23;20194;-65
2021/01/06 12:07:29;;;;;;;4.63;2.10;;;4.80;73.10;;;;;;6208929;23;20657;-66
2021/01/06 12:10:22;;;;;;;3.30;1.87;;;4.80;73.10;;;;;;6210490;23;20280;-66
2021/01/06 12:12:50;;;;;;;3.90;1.93;;;4.70;73.30;;;;;;6213929;23;20144;-64
2021/01/06 12:15:46;;;;;;;3.37;1.83;;;4.70;72.30;;;;;;6214387;23;20147;-66
2021/01/06 12:18:52;;;;;;;4.13;2.17;;;4.90;72.70;;;;;;6212181;23;20207;-66
2021/01/06 12:21:36;;;;;;;4.43;2.13;;;4.90;72.00;;;;;;6212163;23;20166;-66
2021/01/06 12:24:24;;;;;;;6.37;2.70;;;5.00;72.90;;;;;;6212777;23;20583;-66
2021/01/06 12:27:08;;;;;;;4.87;2.37;;;5.00;71.70;;;;;;6192437;23;20167;-64
2021/01/06 12:29:46;;;;;;;2.63;1.23;;;4.90;71.30;;;;;;6187457;23;20173;-64
2021/01/06 12:32:24;;;;;;;4.00;1.80;;;4.80;71.60;;;;;;6186367;23;20161;-64
2021/01/06 12:34:59;;;;;;;3.27;1.53;;;4.70;71.80;;;;;;6213181;23;20579;-64
2021/01/06 12:37:31;;;;;;;4.63;2.00;;;4.60;72.00;;;;;;6213725;23;20139;-64
2021/01/06 12:40:15;;;;;;;3.07;1.90;;;4.60;72.60;;;;;;6214315;23;20151;-64
2021/01/06 12:42:55;;;;;;;2.10;1.07;;;4.70;71.90;;;;;;6215172;23;20513;-64
2021/01/06 12:45:38;;;;;;;4.80;2.10;;;4.70;72.10;;;;;;6187978;23;20147;-64
2021/01/06 12:48:13;;;;;;;4.03;2.00;;;4.70;71.00;;;;;;6214641;23;20174;-65
2021/01/06 12:51:07;;;;;;;2.63;1.30;;;4.70;72.00;;;;;;6187920;23;20158;-66
2021/01/06 12:53:37;;;;;;;6.90;3.10;;;4.70;71.30;;;;;;6214040;23;20163;-65
2021/01/06 12:56:06;;;;;;;3.67;1.60;;;4.60;71.80;;;;;;6214826;23;20147;-65
2021/01/06 12:59:01;;;;;;;2.33;1.23;;;4.60;71.90;;;;;;6187380;23;20182;-65
2021/01/06 13:01:40;;;;;;;4.30;2.13;;;4.60;71.80;;;;;;6214183;23;20139;-65
2021/01/06 13:04:08;;;;;;;3.73;1.40;;;4.70;71.70;;;;;;6186210;23;20504;-66
2021/01/06 13:06:57;;;;;;;3.33;1.50;;;4.80;71.40;;;;;;6212343;23;20661;-65
2021/01/06 13:09:32;;;;;;;3.60;1.80;;;4.80;71.30;;;;;;6214975;23;20151;-65
2021/01/06 13:12:18;;;;;;;5.10;1.97;;;4.90;71.60;;;;;;6214269;23;20130;-65
2021/01/06 13:14:50;;;;;;;4.43;2.20;;;4.90;71.60;;;;;;6214127;23;20143;-66
2021/01/06 13:17:21;;;;;;;3.70;2.13;;;4.90;71.60;;;;;;6212850;23;20183;-66
2021/01/06 13:19:59;;;;;;;2.77;1.47;;;4.90;70.90;;;;;;6187619;23;20205;-66
2021/01/06 13:22:31;;;;;;;3.33;1.60;;;5.00;71.10;;;;;;6213372;23;20147;-66
2021/01/06 13:25:20;;;;;;;4.17;2.00;;;5.00;69.90;;;;;;6213931;23;20146;-66
2021/01/06 13:28:06;;;;;;;3.33;1.77;;;4.90;70.90;;;;;;6187455;23;20201;-66
2021/01/06 13:30:35;;;;;;;3.13;1.80;;;4.80;69.70;;;;;;6213647;23;20159;-66
2021/01/06 13:33:15;;;;;;;2.90;1.17;;;4.90;70.00;;;;;;6187447;23;20229;-65
2021/01/06 13:35:56;;;;;;;3.27;1.40;;;4.90;70.20;;;;;;6213606;23;20592;-65
2021/01/06 13:38:30;;;;;;;2.33;1.43;;;4.90;70.50;;;;;;6187386;23;20182;-66
2021/01/06 13:41:00;;;;;;;3.67;1.30;;;4.90;69.80;;;;;;6186284;23;20166;-66
2021/01/06 13:43:41;;;;;;;4.20;1.33;;;4.90;69.60;;;;;;6212729;23;20167;-66
2021/01/06 13:46:26;;;;;;;2.87;1.23;;;4.90;69.50;;;;;;6212461;23;20150;-66
2021/01/06 13:49:15;;;;;;;2.13;1.20;;;4.90;69.80;;;;;;6186476;23;20182;-66
2021/01/06 13:52:05;;;;;;;3.03;1.57;;;4.80;70.90;;;;;;6143779;23;20161;-66
2021/01/06 13:54:50;;;;;;;3.67;1.53;;;4.90;70.00;;;;;;6187137;23;20186;-68
2021/01/06 13:57:41;;;;;;;4.00;1.97;;;4.80;70.10;;;;;;6213451;23;20147;-66
2021/01/06 14:00:28;;;;;;;4.63;2.20;;;4.80;70.20;;;;;;6212411;23;20174;-66
2021/01/06 14:03:21;;;;;;;4.17;2.20;;;4.90;70.60;;;;;;6213474;23;20287;-66
2021/01/06 14:06:08;;;;;;;4.03;2.27;;;4.90;69.50;;;;;;6212805;23;20175;-65
2021/01/06 14:09:03;;;;;;;2.63;1.13;;;4.80;70.50;;;;;;6187241;23;20608;-66